createdAt,value
2018-12-23T13:13:08.483Z,99056.02
2018-12-23T13:15:39.815Z,99054.69
2018-12-23T13:18:13.841Z,99054.11
2018-12-23T13:20:43.951Z,99052.94
2018-12-23T13:23:14.931Z,99052.47
2018-12-23T13:25:44.985Z,99046.44
2018-12-23T13:28:15.949Z,99039.53
2018-12-23T13:30:46.905Z,99031.83
2018-12-23T13:33:16.940Z,99031.97
2018-12-23T13:35:48.224Z,99027.67
2018-12-23T13:38:18.889Z,99031.56
2018-12-23T13:40:58.155Z,99035.67
2018-12-23T13:44:10.607Z,99023.51
2018-12-23T13:47:54.841Z,99020.84
2018-12-23T13:52:41.937Z,99017.77
2018-12-23T13:55:31.718Z,99013.77
2018-12-23T13:58:16.660Z,99005.42
2018-12-23T14:01:00.368Z,99009.63
2018-12-23T14:03:56.679Z,99001.27
2018-12-23T14:07:15.806Z,99008.23
2018-12-23T14:09:59.672Z,98999.64
2018-12-23T14:12:31.250Z,98997.44
2018-12-23T14:15:01.264Z,98988.88
2018-12-23T14:17:35.972Z,98988.01
2018-12-23T14:20:07.323Z,98991.08
2018-12-23T14:22:39.047Z,98983.25
2018-12-23T14:25:10.106Z,98984.48
2018-12-23T14:27:40.217Z,98982.93
2018-12-23T14:30:10.351Z,98990.73
2018-12-23T14:32:42.181Z,98980.43
2018-12-23T14:35:12.820Z,98980.73
2018-12-23T14:37:43.275Z,98979.61
2018-12-23T14:40:14.224Z,98982.33
2018-12-23T14:42:44.967Z,98973.14
2018-12-23T14:45:15.765Z,98975.70
2018-12-23T14:47:46.272Z,98970.84
2018-12-23T14:50:16.348Z,98966.66
2018-12-23T14:52:48.051Z,98966.33
2018-12-23T14:55:18.972Z,98968.64
2018-12-23T14:57:49.364Z,98966.44
2018-12-23T15:00:20.159Z,98958.96
2018-12-23T15:02:50.488Z,98962.39
2018-12-23T15:05:21.273Z,98958.86
2018-12-23T15:07:51.832Z,98953.17
2018-12-23T15:10:22.581Z,98951.27
2018-12-23T15:12:53.114Z,98941.90
2018-12-23T15:15:23.588Z,98932.52
2018-12-23T15:17:54.523Z,98922.60
2018-12-23T15:20:25.246Z,98922.91
2018-12-23T15:22:55.575Z,98926.59
2018-12-23T15:25:25.671Z,98916.24
2018-12-23T15:27:56.812Z,98909.59
2018-12-23T15:30:27.577Z,98912.55
2018-12-23T15:32:58.409Z,98900.05
2018-12-23T15:35:28.733Z,98898.77
2018-12-23T15:37:59.064Z,98894.77
2018-12-23T15:40:29.530Z,98900.67
2018-12-23T15:43:00.458Z,98897.70
2018-12-23T15:45:31.499Z,98897.14
2018-12-23T15:48:02.388Z,98895.51
2018-12-23T15:50:36.623Z,98889.80
2018-12-23T15:53:07.796Z,98896.63
2018-12-23T15:55:40.553Z,98894.38
2018-12-23T15:58:11.644Z,98893.15
2018-12-23T16:00:41.584Z,98894.67
2018-12-23T16:03:12.779Z,98889.81
2018-12-23T16:05:42.788Z,98876.96
2018-12-23T16:08:14.578Z,98871.80
2018-12-23T16:10:44.577Z,98863.76
2018-12-23T16:13:15.639Z,98862.38
2018-12-23T16:15:45.598Z,98854.84
2018-12-23T16:18:16.581Z,98859.30
2018-12-23T16:20:46.597Z,98866.14
2018-12-23T16:23:16.858Z,98859.95
2018-12-23T16:25:47.804Z,98847.63
2018-12-23T16:28:19.105Z,98843.84
2018-12-23T16:30:49.624Z,98839.04
2018-12-23T16:33:19.814Z,98834.83
2018-12-23T16:35:50.678Z,98830.05
2018-12-23T16:38:24.549Z,98831.44
2018-12-23T16:40:54.916Z,98830.54
2018-12-23T16:43:26.703Z,98833.20
2018-12-23T16:45:56.716Z,98824.86
2018-12-23T16:48:27.200Z,98817.64
2018-12-23T16:50:58.249Z,98817.59
2018-12-23T16:53:28.925Z,98811.39
2018-12-23T16:55:59.983Z,98815.39
2018-12-23T16:58:31.699Z,98810.06
2018-12-23T17:01:02.945Z,98815.95
2018-12-23T17:03:37.755Z,98815.39
2018-12-23T17:06:07.887Z,98807.41
2018-12-23T17:08:39.912Z,98816.41
2018-12-23T17:11:10.836Z,98813.70
2018-12-23T17:13:40.819Z,98812.83
2018-12-23T17:16:10.935Z,98813.34
2018-12-23T17:18:41.904Z,98810.22
2018-12-23T17:21:12.826Z,98811.34
2018-12-23T17:23:43.247Z,98815.08
2018-12-23T17:26:13.884Z,98812.72
2018-12-23T17:28:44.121Z,98808.48
2018-12-23T17:31:15.115Z,98808.44
2018-12-23T17:33:45.732Z,98804.69
2018-12-23T17:36:16.450Z,98799.02
2018-12-23T17:38:47.035Z,98794.62
2018-12-23T17:41:17.606Z,98787.72
2018-12-23T17:43:48.173Z,98784.73
2018-12-23T17:46:18.940Z,98788.89
2018-12-23T17:48:49.019Z,98779.88
2018-12-23T17:51:20.224Z,98788.38
2018-12-23T17:53:51.285Z,98785.72
2018-12-23T17:56:22.004Z,98779.52
2018-12-23T17:58:53.376Z,98782.37
2018-12-23T18:01:23.703Z,98780.34
2018-12-23T18:04:02.044Z,98777.33
2018-12-23T18:06:28.374Z,98774.45
2018-12-23T18:09:01.449Z,98770.91
2018-12-23T18:11:32.373Z,98771.37
2018-12-23T18:14:03.601Z,98769.81
2018-12-23T18:16:34.548Z,98768.02
2018-12-23T18:19:04.564Z,98763.09
2018-12-23T18:21:35.459Z,98756.52
2018-12-23T18:24:05.595Z,98754.17
2018-12-23T18:26:44.830Z,98752.11
2018-12-23T18:29:08.899Z,98753.14
2018-12-23T18:31:40.372Z,98751.39
2018-12-23T18:34:11.277Z,98749.52
2018-12-23T18:36:42.820Z,98742.63
2018-12-23T18:39:14.376Z,98737.19
2018-12-23T18:41:47.333Z,98736.96
2018-12-23T18:44:17.563Z,98727.66
2018-12-23T18:46:50.561Z,98731.92
2018-12-23T18:49:21.467Z,98730.02
2018-12-23T18:51:52.572Z,98716.04
2018-12-23T18:54:22.888Z,98713.50
2018-12-23T18:56:59.098Z,98706.95
2018-12-23T18:59:32.729Z,98705.87
2018-12-23T19:02:09.142Z,98697.30
2018-12-23T19:04:40.457Z,98691.35
2018-12-23T19:07:15.678Z,98697.02
2018-12-23T19:10:23.004Z,98684.80
2018-12-23T19:13:44.906Z,98679.49
2018-12-23T19:16:28.118Z,98664.48
2018-12-23T19:19:16.472Z,98667.42
2018-12-23T19:21:57.963Z,98665.01
2018-12-23T19:24:39.721Z,98661.88
2018-12-23T19:27:54.664Z,98653.79
2018-12-23T19:30:47.170Z,98649.56
2018-12-23T19:35:41.159Z,98648.75
2018-12-23T19:38:57.506Z,98636.16
2018-12-23T19:43:47.411Z,98631.83
2018-12-23T19:50:37.671Z,98623.59
2018-12-23T19:54:20.313Z,98607.75
2018-12-23T19:57:32.304Z,98600.75
2018-12-23T20:00:27.966Z,98592.78
2018-12-23T20:05:12.751Z,98583.95
2018-12-23T20:08:26.063Z,98581.84
2018-12-23T20:13:27.663Z,98575.20
2018-12-23T20:16:07.867Z,98564.49
2018-12-23T20:21:03.536Z,98572.70
2018-12-23T20:24:29.133Z,98566.58
2018-12-23T20:27:10.003Z,98554.63
2018-12-23T20:30:27.376Z,98539.46
2018-12-23T20:35:16.046Z,98521.91
2018-12-23T20:38:32.617Z,98519.55
2018-12-23T20:41:24.610Z,98511.59
2018-12-23T20:44:13.260Z,98505.98
2018-12-23T20:46:58.857Z,98487.13
2018-12-23T20:51:48.687Z,98482.55
2018-12-23T20:54:34.900Z,98472.69
2018-12-23T20:59:15.650Z,98461.50
2018-12-23T21:02:02.899Z,98466.45
2018-12-23T21:04:59.605Z,98426.30
2018-12-23T21:09:48.432Z,98441.14
2018-12-23T21:12:39.961Z,98423.89
2018-12-23T21:15:38.819Z,98416.73
2018-12-23T21:20:25.716Z,98403.47
2018-12-23T21:25:11.327Z,98400.77
2018-12-23T21:27:59.171Z,98387.14
2018-12-23T21:30:48.289Z,98387.71
2018-12-23T21:33:30.393Z,98382.41
2018-12-23T21:36:10.969Z,98388.52
2018-12-23T21:38:55.272Z,98383.98
2018-12-23T21:41:36.931Z,98371.73
2018-12-23T21:44:22.197Z,98366.43
2018-12-23T21:47:02.093Z,98353.41
2018-12-23T21:49:51.719Z,98349.42
2018-12-23T21:52:39.697Z,98337.76
2018-12-23T21:55:16.547Z,98329.28
2018-12-23T21:58:04.108Z,98316.83
2018-12-23T22:01:20.335Z,98303.86
2018-12-23T22:06:11.161Z,98293.25
2018-12-23T22:09:20.802Z,98282.34
2018-12-23T22:12:18.010Z,98263.47
2018-12-23T22:14:49.119Z,98248.66
2018-12-23T22:17:20.179Z,98238.55
2018-12-23T22:19:50.379Z,98231.92
2018-12-23T22:22:21.376Z,98236.71
2018-12-23T22:24:52.480Z,98229.27
2018-12-23T22:27:22.586Z,98223.15
2018-12-23T22:29:59.039Z,98219.22
2018-12-23T22:32:30.198Z,98211.25
2018-12-23T22:35:00.284Z,98200.13
2018-12-23T22:37:32.481Z,98196.95
2018-12-23T22:40:05.530Z,98190.07
2018-12-23T22:42:36.120Z,98169.36
2018-12-23T22:45:07.084Z,98165.16
2018-12-23T22:47:37.580Z,98155.31
2018-12-23T22:50:08.551Z,98141.23
2018-12-23T22:52:39.273Z,98134.09
2018-12-23T22:55:13.273Z,98138.58
2018-12-23T22:57:43.415Z,98128.44
2018-12-23T23:00:17.268Z,98117.53
2018-12-23T23:02:50.454Z,98113.85
2018-12-23T23:05:21.570Z,98099.25
2018-12-23T23:07:52.664Z,98092.92
2018-12-23T23:10:25.859Z,98084.66
2018-12-23T23:12:56.768Z,98081.45
2018-12-23T23:15:29.461Z,98075.59
2018-12-23T23:17:59.468Z,98072.43
2018-12-23T23:20:31.468Z,98058.05
2018-12-23T23:23:04.854Z,98048.14
2018-12-23T23:25:37.514Z,98040.47
2018-12-23T23:28:08.897Z,98037.56
2018-12-23T23:30:41.669Z,98027.80
2018-12-23T23:33:14.961Z,98021.17
2018-12-23T23:35:46.775Z,98019.33
2018-12-23T23:38:22.593Z,98014.28
2018-12-23T23:40:54.930Z,97999.39
2018-12-23T23:43:27.946Z,97992.47
2018-12-23T23:45:58.822Z,97989.59
2018-12-23T23:48:29.059Z,97979.50
2018-12-23T23:51:02.869Z,97985.09
2018-12-23T23:53:34.113Z,97979.20
2018-12-23T23:56:04.972Z,97977.84
2018-12-23T23:58:36.757Z,97969.84
